Tiempo atmosférico en la estación meteorológica de Fuente De Piedra, Málaga (423 m.)



Fecha
DESCASC
Temp. máxima en grados centígrados (hora)
DESCASC
Temp. mínima en grados centígrados (hora)
DESCASC
Temp. media en grados centígrados
DESCASC
Racha de viento máxima en m/sg (hora)
DESCASC
Velocidad máxima media en intervalos de 10 minutos(hora)
DESCASC
Precipitaciones diarias en mm
DESCASC
Precipitaciones de 00:00 a 06:00 en mm
DESCASC
Precipitaciones de 06:00 a 12:00 en mm
DESCASC
Precipitaciones de 12:00 a 18:00 en mm
DESCASC
Precipitaciones de 18:00 a 24:00 en mm
DESCASC
25-04-2019 17.2 (18:20) 11.2 (09:50) 14.2 12.22 (09:40) 7.78 (18:00) 5.6 1.8 3.8 0 0
24-04-2019 16.5 (17:50) 7.4 (07:10) 12 15 (16:50) 11.39 (16:50) 0.8 0.6 0.2 0 0
23-04-2019 14.3 (16:00) 9.3 (10:10) 11.8 16.94 (16:30) 9.44 (16:40) 5 0 4.8 0 0.2
22-04-2019 20.3 (17:20) 8.3 (00:00) 14.3 15 (19:40) 9.17 (19:30) 0 0 0 0 0
21-04-2019 15.8 (16:40) 9.9 (00:00) 12.8 7.5 (18:00) 5.28 (17:20) 0.4 0.2 0 0 0.2
20-04-2019 18 (15:30) 6.8 (00:00) 12.4 11.67 (17:40) 7.78 (17:50) 5 0 0 0.8 4.2
19-04-2019 16.9 (16:40) 7.3 (00:00) 12.1 7.22 (18:00) 4.44 (16:50) 0.6 0 0 0.6 0
18-04-2019 17.4 (14:40) 8.4 (00:00) 12.9 11.11 (19:00) 6.94 (19:10) 3.6 0.2 0.2 1 2.2
17-04-2019 18.6 (13:50) 12.8 (00:00) 15.7 18.89 (13:20) 13.61 (13:00) 0 0 0 0 0
16-04-2019 24.2 (17:00) 8.5 (00:00) 16.4 15 (23:50) 10.28 (23:50) 0 0 0 0 0
15-04-2019 26.5 (15:00) 12.3 (00:00) 19.4 12.78 (16:00) 8.61 (17:00) 0 0 0 0 0
14-04-2019 26.2 (17:50) 8.2 (00:00) 17.2 6.39 (19:10) 4.17 (19:10) 0 0 0 0 0
13-04-2019 22.5 (17:00) 6.5 (00:00) 14.5 7.22 (16:50) 4.17 (19:20) 0 0 0 0 0
12-04-2019 20.4 (17:20) 4.8 (00:00) 12.6 7.22 (15:50) 3.89 (18:00) 0 0 0 0 0
11-04-2019 18.2 (17:40) 6.7 (00:00) 12.5 9.17 (17:50) 5.28 (17:50) 0 0 0 0 0
10-04-2019 16.3 (19:10) 6.4 (00:00) 11.3 9.72 (16:50) 6.11 (17:00) 0 0 0 0 0
09-04-2019 15.3 (17:20) 7.4 (00:00) 11.4 12.78 (15:10) 7.78 (15:10) 0.2 0 0 0.2 0
08-04-2019 16 (15:30) 10.1 (00:00) 13.1 12.22 (15:50) 8.33 (15:50) 1 0.4 0 0.6 0
07-04-2019 13.7 (15:10) 8.8 (00:00) 11.3 9.72 (23:20) 6.39 (23:20) 6.2 0.2 0.2 0.2 5.6
06-04-2019 12.8 (16:00) 6.9 (00:00) 9.9 20.28 (16:40) 10.28 (16:50) 5.2 0 0.2 1.8 3.2
05-04-2019 12.1 (16:00) 6.5 (00:00) 9.3 18.06 (16:20) 9.72 (16:20) 8.4 0 3.2 5 0.2
04-04-2019 17.6 (17:40) 6 (00:00) 11.8 11.67 (20:40) 7.78 (20:50) 0 0 0 0 0
03-04-2019 20.3 (16:10) 7.4 (00:00) 13.8 10.83 (18:10) 6.67 (18:10) 0 0 0 0 0
02-04-2019 19 (17:00) 6.2 (00:00) 12.6 4.44 (17:40) 3.06 (18:10) 0.2 0 0.2 0 0
01-04-2019 16.4 (17:30) 8.5 (00:00) 12.4 8.33 (18:00) 5.28 (14:40) 8.6 0.2 0 2.2 6.2
31-03-2019 18.8 (17:00) 11.1 (00:00) 14.9 10.83 (20:30) 6.94 (00:10) 18.6 1.2 9.4 0 8
30-03-2019 17.3 (14:10) 10.5 (00:00) 13.9 15 (17:00) 10.28 (17:00) 0 0 0 0 0
29-03-2019 16.6 (13:40) 9 (00:00) 12.8 16.11 (13:30) 10.83 (13:20) 0 0 0 0 0
28-03-2019 19 (15:10) 7.3 (00:00) 13.2 14.72 (17:50) 11.11 (17:40) 0 0 0 0 0
27-03-2019 18.8 (14:30) 8.4 (00:00) 13.6 13.33 (18:30) 9.17 (17:40) 0 0 0 0 0

Gráficas

Temp. máximas Temp. mínimas Temp. medias Precipitaciones Rachas de viento máximas Velocidades máximas media en intervalos de 10 minutos

Datos horarios

Fecha y hora oficial Temperatura (ºC) Velocidad del viento (km/h) Dirección del viento Racha (km/h) Dirección de racha Precipitación (mm) Presión (hPa) Tendencia (hPa) Humedad (%)
2019-04-25 23:00:00 12.2 9 Oeste 23 Oeste 0 -- -- 78
2019-04-25 22:00:00 13.6 14 Oeste 30 Oeste 0 -- -- 73
2019-04-25 21:00:00 14.4 13 Oeste 31 Oeste 0 -- -- 69
2019-04-25 20:00:00 15.3 21 Oeste 40 Oeste 0 -- -- 63
2019-04-25 19:00:00 16.3 24 Oeste 39 Oeste 0 -- -- 56
2019-04-25 18:00:00 17.1 28 Sudoeste 42 Oeste 0 -- -- 58
2019-04-25 17:00:00 16.4 18 Oeste 36 Oeste 0 -- -- 65
2019-04-25 16:00:00 15.5 14 Sudoeste 25 Sudoeste 0 -- -- 69
2019-04-25 15:00:00 13.9 13 Sudoeste 21 Sudoeste 0 -- -- 77
2019-04-25 14:00:00 13.7 9 Oeste 26 Oeste 0 -- -- 73
2019-04-25 13:00:00 13.8 10 Oeste 23 Sudoeste 0 -- -- 67
2019-04-25 12:00:00 13.3 15 Sudoeste 28 Sudoeste 0 -- -- 67
2019-04-25 11:00:00 11.7 15 Oeste 26 Oeste 0 -- -- 82
2019-04-25 10:00:00 11.4 14 Oeste 44 Oeste 0.2 -- -- 89
2019-04-25 09:00:00 12.1 22 Oeste 42 Oeste 0.4 -- -- 93
2019-04-25 08:00:00 12.7 19 Oeste 32 Sudoeste 1.6 -- -- 94
2019-04-25 07:00:00 12.8 14 Sudoeste 21 Sudoeste 1.6 -- -- 95
2019-04-25 06:00:00 12.6 9 Sur 27 Sudoeste 1 -- -- 94
2019-04-25 05:00:00 12.5 12 Sur 18 Sur 0.6 -- -- 94
2019-04-25 04:00:00 12.5 12 Sur 17 Sudeste 0.2 -- -- 92
2019-04-25 03:00:00 12.5 13 Sur 19 Sur 0 -- -- 91
2019-04-25 02:00:00 12.9 14 Sur 27 Sur 0 -- -- 86
2019-04-25 01:00:00 13.3 16 Sur 28 Sudoeste 0 -- -- 79
2019-04-25 00:00:00 13.1 12 Sur 20 Sur 0 -- -- 76
2019-04-24 23:00:00 13.7 16 Sur 29 Sur 0 -- -- 73
2019-04-24 22:00:00 13.8 17 Sur 41 Sudoeste 0 -- -- 71
2019-04-24 21:00:00 14.5 24 Sudoeste 49 Sur 0 -- -- 69
2019-04-24 20:00:00 15.1 32 Sudoeste 49 Sudoeste 0 -- -- 68
2019-04-24 19:00:00 15.6 29 Sudoeste 49 Sudoeste 0 -- -- 64
2019-04-24 18:00:00 16.5 36 Sudoeste 49 Sudoeste 0 -- -- 64
2019-04-24 17:00:00 16.2 37 Sudoeste 54 Sudoeste 0 -- -- 65
2019-04-24 16:00:00 15.8 18 Sur 39 Sudoeste 0 -- -- 66
2019-04-24 15:00:00 15.3 18 Sur 35 Sur 0 -- -- 64
2019-04-24 14:00:00 14.7 22 Sur 34 Sur 0 -- -- 68
2019-04-24 13:00:00 14.2 23 Sur 40 Sur 0 -- -- 65
2019-04-24 12:00:00 15.2 17 Sur 34 Sur 0.2 -- -- 64
2019-04-24 11:00:00 13.9 19 Sur 31 Sur 0 -- -- 66
2019-04-24 10:00:00 12.1 17 Sur 25 Sur 0 -- -- 71
2019-04-24 09:00:00 9.2 12 Sur 17 Sur 0 -- -- 85
2019-04-24 08:00:00 7.7 10 Sur 13 Sur 0 -- -- 91
2019-04-24 07:00:00 7.5 4 Sur 13 Sur 0 -- -- 90
2019-04-24 06:00:00 8.3 9 Sur 13 Sur 0 -- -- 91
2019-04-24 05:00:00 8.6 5 Sur 15 Sudoeste 0.6 -- -- 88
2019-04-24 04:00:00 9.1 8 Sudoeste 16 Sur 0 -- -- 88
2019-04-24 03:00:00 9.1 6 Sur 13 Oeste 0 -- -- 81
2019-04-24 02:00:00 9.3 8 Oeste 23 Sudoeste 0 -- -- 80
2019-04-24 01:00:00 10 16 Sudoeste 24 Sudoeste 0 -- -- 77
2019-04-24 00:00:00 9.5 9 Oeste 27 Sudoeste 0.2 -- -- 79
2019-04-23 23:00:00 10.1 15 Sudoeste 26 Sudoeste 0 -- -- 75
2019-04-23 22:00:00 10.3 17 Sudoeste 30 Oeste 0 -- -- 73
2019-04-23 21:00:00 10.2 19 Oeste 38 Oeste 0 -- -- 71
2019-04-23 20:00:00 12.8 21 Oeste 44 Sudoeste 0 -- -- 59
2019-04-23 19:00:00 13.3 27 Sudoeste 48 Oeste 0 -- -- 58
2019-04-23 18:00:00 13 16 Oeste 44 Oeste 0 -- -- 60
2019-04-23 17:00:00 12.2 25 Noroeste 61 Noroeste 0 -- -- 64
2019-04-23 16:00:00 14.3 25 Oeste 50 Oeste 0 -- -- 50
2019-04-23 15:00:00 13.6 22 Oeste 36 Sudoeste 0 -- -- 54
2019-04-23 14:00:00 12.8 17 Oeste 36 Oeste 0 -- -- 56
2019-04-23 13:00:00 12.4 20 Oeste 31 Oeste 0 -- -- 61
2019-04-23 12:00:00 10.6 15 Oeste 27 Oeste 0 -- -- 74
2019-04-23 11:00:00 9.6 18 Oeste 34 Oeste 0 -- -- 84
2019-04-23 10:00:00 9.4 19 Oeste 41 Oeste 0.8 -- -- 87
2019-04-23 09:00:00 10.8 17 Sudoeste 30 Noroeste 3.6 -- -- 89
2019-04-23 08:00:00 12.9 23 Sudoeste 37 Sur 0.4 -- -- 77
2019-04-23 07:00:00 13.7 23 Sur 39 Sudoeste 0 -- -- 65
2019-04-23 06:00:00 13.3 11 Sur 17 Sudoeste 0 -- -- 78
2019-04-23 05:00:00 12.8 2 Sudeste 5 Sudeste 0 -- -- 80
2019-04-23 04:00:00 12.8 0 Calma 8 Sudeste 0 -- -- 79
2019-04-23 03:00:00 13.2 5 Sur 24 Sudoeste 0 -- -- 75
2019-04-23 02:00:00 13.6 15 Oeste 32 Sudoeste 0 -- -- 73
2019-04-23 01:00:00 13.9 20 Sudoeste 31 Sudoeste 0 -- -- 75
2019-04-23 00:00:00 14.2 13 Sudoeste 21 Oeste 0 -- -- 70
2019-04-22 23:00:00 14.8 12 Sudoeste 30 Sudoeste 0 -- -- 66
2019-04-22 22:00:00 15.5 19 Sudoeste 30 Sudoeste 0 -- -- 62
2019-04-22 21:00:00 16.8 20 Sudoeste 48 Oeste 0 -- -- 60
2019-04-22 20:00:00 18.6 28 Oeste 54 Oeste 0 -- -- 51
2019-04-22 19:00:00 19.5 20 Oeste 38 Sudoeste 0 -- -- 47
2019-04-22 18:00:00 19.6 19 Oeste 39 Oeste 0 -- -- 44
2019-04-22 17:00:00 19.5 19 Oeste 32 Oeste 0 -- -- 45
2019-04-22 16:00:00 19.5 22 Noroeste 36 Noroeste 0 -- -- 49
2019-04-22 15:00:00 18.6 17 Oeste 27 Oeste 0 -- -- 50
2019-04-22 14:00:00 16.9 18 Oeste 30 Noroeste 0 -- -- 54
2019-04-22 13:00:00 17.3 17 Noroeste 27 Noroeste 0 -- -- 54
2019-04-22 12:00:00 15.8 18 Noroeste 30 Noroeste 0 -- -- 58
2019-04-22 11:00:00 14.7 7 Noroeste 15 Noroeste 0 -- -- 62
2019-04-22 10:00:00 13 5 Noroeste 12 Norte 0 -- -- 70
2019-04-22 09:00:00 10.4 3 Norte 7 Noroeste 0 -- -- 86
2019-04-22 08:00:00 8.3 3 Norte 12 Noroeste 0 -- -- 88
2019-04-22 07:00:00 9.1 6 Noroeste 10 Noroeste 0 -- -- 85
2019-04-22 06:00:00 10.1 8 Noroeste 22 Norte 0 -- -- 82
2019-04-22 05:00:00 10.8 15 Norte 27 Norte 0 -- -- 77
2019-04-22 04:00:00 10.6 12 Noroeste 23 Noroeste 0 -- -- 79
2019-04-22 03:00:00 11.1 17 Norte 24 Norte 0 -- -- 77
2019-04-22 02:00:00 11.4 13 Norte 19 Norte 0 -- -- 77
2019-04-22 01:00:00 11.6 10 Norte 18 Norte 0 -- -- 77
2019-04-22 00:00:00 11.9 7 Norte 20 Norte 0 -- -- 77
2019-04-21 23:00:00 12.6 15 Norte 24 Norte 0 -- -- 73
2019-04-21 22:00:00 12.7 10 Norte 17 Norte 0 -- -- 76
2019-04-21 21:00:00 12.6 9 Norte 21 Norte 0.2 -- -- 81
2019-04-21 20:00:00 13.3 14 Norte 24 Norte 0 -- -- 74
2019-04-21 19:00:00 13.8 14 Norte 25 Norte 0 -- -- 70
2019-04-21 18:00:00 14.9 16 Norte 27 Norte 0 -- -- 68
2019-04-21 17:00:00 15.7 17 Norte 26 Norte 0 -- -- 68
2019-04-21 16:00:00 14.7 17 Norte 24 Norte 0 -- -- 69
2019-04-21 15:00:00 15.3 17 Norte 24 Norte 0 -- -- 70
2019-04-21 14:00:00 15 12 Norte 18 Norte 0 -- -- 76
2019-04-21 13:00:00 14 10 Noroeste 18 Noroeste 0 -- -- 79
2019-04-21 12:00:00 13.1 6 Norte 11 Noroeste 0 -- -- 84
2019-04-21 11:00:00 11 0 Calma 8 Norte 0 -- -- 89
2019-04-21 10:00:00 10.8 6 Nordeste 9 Nordeste 0 -- -- 90
2019-04-21 09:00:00 10.3 6 Norte 10 Norte 0 -- -- 94
2019-04-21 08:00:00 9.9 5 Norte 8 Norte 0 -- -- 95
2019-04-21 07:00:00 10 6 Norte 8 Norte 0 -- -- 95
2019-04-21 06:00:00 10.6 2 Este 5 Nordeste 0 -- -- 96
2019-04-21 05:00:00 10.6 4 Nordeste 6 Norte 0 -- -- 95
2019-04-21 04:00:00 10.7 2 Nordeste 8 Nordeste 0.2 -- -- 95
2019-04-21 03:00:00 11.2 3 Norte 4 Norte 0 -- -- 94
2019-04-21 02:00:00 11.6 0 Calma 5 Sur 0 -- -- 94
2019-04-21 01:00:00 11.9 3 Sur 6 Sudoeste 0 -- -- 93
2019-04-21 00:00:00 11.9 2 Sur 7 Sur 0 -- -- 93
2019-04-20 23:00:00 12 3 Sudeste 6 Sudeste 0 -- -- 93
2019-04-20 22:00:00 12.1 0 Calma 7 Sur 0.6 -- -- 91
2019-04-20 21:00:00 12.3 4 Sur 15 Este 3.2 -- -- 89
2019-04-20 20:00:00 12.8 8 Sur 12 Sur 0 -- -- 87
2019-04-20 19:00:00 13.2 6 Sur 31 Sur 0.4 -- -- 84
2019-04-20 18:00:00 13 25 Sur 42 Sudeste 0.8 -- -- 82
2019-04-20 17:00:00 17 12 Norte 23 Nordeste 0 -- -- 66
2019-04-20 16:00:00 17.3 9 Sudoeste 15 Sudoeste 0 -- -- 62
2019-04-20 15:00:00 17.1 4 Sudoeste 14 Norte 0 -- -- 62
2019-04-20 14:00:00 15.3 3 Norte 16 Noroeste 0 -- -- 67
2019-04-20 13:00:00 14.4 8 Nordeste 20 Este 0 -- -- 72
2019-04-20 12:00:00 12.8 11 Nordeste 19 Nordeste 0 -- -- 80
2019-04-20 11:00:00 11.5 6 Nordeste 10 Nordeste 0 -- -- 86
2019-04-20 10:00:00 10.1 5 Norte 8 Nordeste 0 -- -- 95
2019-04-20 09:00:00 8.7 0 Calma 13 Norte 0 -- -- 96
2019-04-20 08:00:00 8.1 6 Norte 11 Norte 0 -- -- 95
2019-04-20 07:00:00 8.3 4 Norte 8 Norte 0 -- -- 95
2019-04-20 06:00:00 7.2 7 Norte 10 Nordeste 0 -- -- 95
2019-04-20 05:00:00 7 3 Sur 5 Sudoeste 0 -- -- 94
2019-04-20 04:00:00 7.3 2 Sudeste 5 Norte 0 -- -- 95
2019-04-20 03:00:00 7.4 3 Sudoeste 7 Nordeste 0 -- -- 93
2019-04-20 02:00:00 7.5 3 Nordeste 7 Norte 0 -- -- 93
2019-04-20 01:00:00 8.8 2 Sudeste 6 Sur 0 -- -- 90
2019-04-20 00:00:00 9.6 5 Sur 6 Sur 0 -- -- 88
2019-04-19 23:00:00 11 3 Oeste 10 Oeste 0 -- -- 85
2019-04-19 22:00:00 11.7 4 Sudoeste 15 Oeste 0 -- -- 82
2019-04-19 21:00:00 12.1 11 Oeste 23 Sudoeste 0 -- -- 84
2019-04-19 20:00:00 11.6 4 Sudeste 15 Sur 0 -- -- 87
2019-04-19 19:00:00 11.8 9 Sur 22 Sudoeste 0 -- -- 87
2019-04-19 18:00:00 14 15 Sur 26 Sur 0.6 -- -- 72
2019-04-19 17:00:00 16.4 16 Nordeste 25 Norte 0 -- -- 57
2019-04-19 16:00:00 16.1 3 Norte 11 Nordeste 0 -- -- 56
2019-04-19 15:00:00 15.8 3 Norte 17 Oeste 0 -- -- 59
2019-04-19 14:00:00 16.6 5 Oeste 14 Noroeste 0 -- -- 57
2019-04-19 13:00:00 15.5 4 Norte 13 Norte 0 -- -- 64
2019-04-19 12:00:00 13.7 5 Norte 11 Nordeste 0 -- -- 71
2019-04-19 11:00:00 13.1 5 Noroeste 12 Norte 0 -- -- 73
2019-04-19 10:00:00 10.4 2 Sudoeste 7 Sudoeste 0 -- -- 94
2019-04-19 09:00:00 8.8 2 Este 4 Nordeste 0 -- -- 95
2019-04-19 08:00:00 7.3 3 Norte 4 Nordeste 0 -- -- 95
2019-04-19 07:00:00 8.1 0 Calma 6 Oeste 0 -- -- 95
2019-04-19 06:00:00 8.5 6 Noroeste 9 Oeste 0 -- -- 94
2019-04-19 05:00:00 8.8 3 Norte 5 Norte 0 -- -- 94
2019-04-19 04:00:00 8.9 0 Calma 4 Sur 0 -- -- 94
2019-04-19 03:00:00 8.8 0 Calma 10 Este 0 -- -- 94
2019-04-19 02:00:00 8.6 2 Este 5 Sur 0 -- -- 94
2019-04-19 01:00:00 8.5 4 Sudeste 5 Sudeste 0 -- -- 93
2019-04-19 00:00:00 8.4 5 Nordeste 9 Norte 0 -- -- 93
2019-04-18 23:00:00 9.2 4 Sur 8 Sur 0 -- -- 91
2019-04-18 22:00:00 9.7 6 Sudeste 8 Sudeste 0 -- -- 90
2019-04-18 21:00:00 10.3 4 Nordeste 10 Noroeste 0 -- -- 89
2019-04-18 20:00:00 10.4 11 Noroeste 40 Noroeste 2.2 -- -- 89
2019-04-18 19:00:00 11.8 24 Noroeste 40 Noroeste 0 -- -- 73
2019-04-18 18:00:00 12.2 9 Noroeste 35 Oeste 0.2 -- -- 79
2019-04-18 17:00:00 14.2 9 Noroeste 35 Oeste 0.8 -- -- 78
2019-04-18 16:00:00 16.9 13 Oeste 31 Oeste 0 -- -- 53
2019-04-18 15:00:00 16.8 16 Oeste 30 Sudoeste 0 -- -- 51
2019-04-18 14:00:00 17.1 14 Sudoeste 22 Oeste 0 -- -- 51
2019-04-18 13:00:00 15.4 6 Sudoeste 17 Oeste 0 -- -- 58
2019-04-18 12:00:00 14.3 6 Sur 24 Oeste 0 -- -- 66
2019-04-18 11:00:00 13.8 10 Oeste 23 Oeste 0 -- -- 76
2019-04-18 10:00:00 12.7 12 Oeste 21 Oeste 0 -- -- 81
2019-04-18 09:00:00 10.5 7 Oeste 14 Oeste 0 -- -- 91
2019-04-18 08:00:00 10.8 2 Norte 9 Nordeste 0 -- -- 90
2019-04-18 07:00:00 11 5 Noroeste 15 Nordeste 0.2 -- -- 88
2019-04-18 06:00:00 11.4 6 Nordeste 13 Nordeste 0 -- -- 85
2019-04-18 05:00:00 11.5 4 Norte 12 Este 0.2 -- -- 85
2019-04-18 04:00:00 12.3 0 Calma 9 Noroeste 0 -- -- 75
2019-04-18 03:00:00 12.7 3 Norte 16 Oeste 0 -- -- 77
2019-04-18 02:00:00 13 7 Sur 30 Este 0 -- -- 74
2019-04-18 01:00:00 13.4 16 Este 24 Este 0 -- -- 73
2019-04-18 00:00:00 13.3 9 Sudeste 15 Sudeste 0 -- -- 72
2019-04-17 23:00:00 13.4 6 Oeste 31 Oeste 0 -- -- 70
2019-04-17 22:00:00 13.7 16 Oeste 34 Oeste 0 -- -- 69
2019-04-17 21:00:00 15.5 9 Sur 27 Sudoeste 0 -- -- 67
2019-04-17 20:00:00 16.2 23 Sudoeste 35 Sudoeste 0 -- -- 66
2019-04-17 19:00:00 16.4 20 Sudoeste 45 Sudoeste 0 -- -- 63
2019-04-17 18:00:00 16.9 22 Sudoeste 45 Sur 0 -- -- 63
2019-04-17 17:00:00 16.7 33 Sur 51 Sur 0 -- -- 67
2019-04-17 16:00:00 17.3 26 Sur 48 Sudoeste 0 -- -- 64
2019-04-17 15:00:00 17.4 27 Sur 64 Sur 0 -- -- 65
2019-04-17 14:00:00 18.2 46 Sur 68 Sur 0 -- -- 61
2019-04-17 13:00:00 17.4 49 Sur 65 Sur 0 -- -- 62
2019-04-17 12:00:00 17.5 36 Sur 59 Sur 0 -- -- 63
2019-04-17 11:00:00 16 31 Sur 54 Sur 0 -- -- 65
2019-04-17 10:00:00 14.8 33 Sur 51 Sur 0 -- -- 68
2019-04-17 09:00:00 13.7 30 Sur 49 Sur 0 -- -- 76
2019-04-17 08:00:00 12.8 31 Sur 49 Sur 0 -- -- 80
2019-04-17 07:00:00 13.2 15 Sur 37 Sur 0 -- -- 74
2019-04-17 06:00:00 13.6 27 Sur 42 Sur 0 -- -- 71
2019-04-17 05:00:00 13.9 28 Sur 44 Sur 0 -- -- 66
2019-04-17 04:00:00 13.4 27 Sur 42 Sur 0 -- -- 72
2019-04-17 03:00:00 13.5 23 Sur 47 Sur 0 -- -- 74
2019-04-17 02:00:00 14.4 31 Sur 58 Sur 0 -- -- 66
2019-04-17 01:00:00 14.9 43 Sur 66 Sur 0 -- -- 61
2019-04-17 00:00:00 15.4 36 Sur 54 Sur 0 -- -- 59
2019-04-16 23:00:00 16.1 36 Sur 51 Sur 0 -- -- 43
2019-04-16 22:00:00 17 28 Sur 41 Sur 0 -- -- 34
2019-04-16 21:00:00 17.8 21 Sur 38 Sur 0 -- -- 30
2019-04-16 20:00:00 20.8 26 Sur 38 Sur 0 -- -- 26
2019-04-16 19:00:00 22.5 26 Sur 38 Sur 0 -- -- 24
2019-04-16 18:00:00 23.7 26 Sur 36 Sur 0 -- -- 21
2019-04-16 17:00:00 24.2 22 Sur 36 Sudeste 0 -- -- 24
2019-04-16 16:00:00 23.7 26 Sur 37 Sur 0 -- -- 23
2019-04-16 15:00:00 23.6 21 Sur 36 Sur 0 -- -- 35
2019-04-16 14:00:00 22.1 8 Sudoeste 23 Sur 0 -- -- 49
2019-04-16 13:00:00 20.7 6 Nordeste 13 Sur 0 -- -- 53
2019-04-16 12:00:00 18.5 5 Este 13 Nordeste 0 -- -- 64
2019-04-16 11:00:00 15.9 4 Sur 9 Sur 0 -- -- 75
2019-04-16 10:00:00 13.7 4 Sudoeste 8 Sur 0 -- -- 85
2019-04-16 09:00:00 10.9 2 Sur 5 Norte 0 -- -- 93
2019-04-16 08:00:00 9 2 Oeste 4 Sur 0 -- -- 90
2019-04-16 07:00:00 9.7 0 Calma 5 Sudeste 0 -- -- 91
2019-04-16 06:00:00 10.2 0 Calma 12 Norte 0 -- -- 90
2019-04-16 05:00:00 10.7 7 Nordeste 10 Norte 0 -- -- 86
2019-04-16 04:00:00 11.2 4 Norte 8 Norte 0 -- -- 84
2019-04-16 03:00:00 12.6 3 Norte 9 Este 0 -- -- 80
2019-04-16 02:00:00 13.8 3 Norte 18 Oeste 0 -- -- 75
2019-04-16 01:00:00 14.2 11 Oeste 18 Oeste 0 -- -- 74
2019-04-16 00:00:00 14.8 13 Oeste 41 Oeste 0 -- -- 75
2019-04-15 23:00:00 15 19 Oeste 28 Oeste 0 -- -- 75
2019-04-15 22:00:00 16 16 Oeste 42 Oeste 0 -- -- 66
2019-04-15 21:00:00 18.1 28 Oeste 42 Oeste 0 -- -- 56
2019-04-15 20:00:00 20.6 18 Oeste 32 Sudoeste 0 -- -- 42
2019-04-15 19:00:00 22.7 17 Oeste 40 Oeste 0 -- -- 34
2019-04-15 18:00:00 24 27 Oeste 44 Sudoeste 0 -- -- 30
2019-04-15 17:00:00 24.7 31 Sudoeste 46 Sudoeste 0 -- -- 31
2019-04-15 16:00:00 25.1 27 Oeste 46 Oeste 0 -- -- 33
2019-04-15 15:00:00 26.5 21 Sudoeste 35 Sudoeste 0 -- -- 30
2019-04-15 14:00:00 25.3 14 Sudoeste 21 Sudoeste 0 -- -- 34
2019-04-15 13:00:00 23.8 14 Sudoeste 21 Sudoeste 0 -- -- 41
2019-04-15 12:00:00 22.3 4 Sudoeste 9 Sudoeste 0 -- -- 40
2019-04-15 11:00:00 19.8 6 Sudoeste 10 Sudoeste 0 -- -- 56
2019-04-15 10:00:00 17.2 6 Sur 8 Sur 0 -- -- 69
2019-04-15 09:00:00 13.3 2 Norte 5 Sudeste 0 -- -- 80
2019-04-15 08:00:00 12.4 0 Calma 5 Oeste 0 -- -- 85
2019-04-15 07:00:00 12.6 3 Oeste 5 Noroeste 0 -- -- 85
2019-04-15 06:00:00 13.5 3 Oeste 5 Noroeste 0 -- -- 84
2019-04-15 05:00:00 13.4 0 Calma 5 Sudoeste 0 -- -- 83
2019-04-15 04:00:00 14.4 0 Calma 7 Sudeste 0 -- -- 80
2019-04-15 03:00:00 15.9 0 Calma 3 Nordeste 0 -- -- 76
2019-04-15 02:00:00 16.5 0 Calma 4 Sur 0 -- -- 74
2019-04-15 01:00:00 16.7 0 Calma 5 Norte 0 -- -- 72
2019-04-15 00:00:00 18.3 2 Nordeste 4 Norte 0 -- -- 64
2019-04-14 23:00:00 19.4 2 Sudeste 7 Nordeste 0 -- -- 58
2019-04-14 22:00:00 19.9 6 Nordeste 10 Norte 0 -- -- 54
2019-04-14 21:00:00 20.7 9 Nordeste 15 Norte 0 -- -- 52
2019-04-14 20:00:00 23 9 Norte 23 Norte 0 -- -- 46
2019-04-14 19:00:00 24.9 10 Norte 22 Noroeste 0 -- -- 40
2019-04-14 18:00:00 25.8 6 Sudoeste 13 Sur 0 -- -- 35
2019-04-14 17:00:00 25.6 6 Sudoeste 12 Sudoeste 0 -- -- 36
2019-04-14 16:00:00 25.2 4 Noroeste 11 Sudoeste 0 -- -- 35
2019-04-14 15:00:00 24.3 4 Sur 10 Sur 0 -- -- 36
2019-04-14 14:00:00 22.8 6 Sudoeste 9 Sudoeste 0 -- -- 37
2019-04-14 13:00:00 20.9 5 Sudoeste 10 Oeste 0 -- -- 45
2019-04-14 12:00:00 18.9 6 Oeste 9 Oeste 0 -- -- 46
2019-04-14 11:00:00 16.7 4 Sudoeste 6 Oeste 0 -- -- 52
2019-04-14 10:00:00 13.9 3 Sur 5 Sudeste 0 -- -- 66
2019-04-14 09:00:00 10.5 2 Sudeste 8 Sur 0 -- -- 80
2019-04-14 08:00:00 8.5 5 Sur 8 Sur 0 -- -- 85
2019-04-14 07:00:00 8.6 3 Sur 7 Sur 0 -- -- 87
2019-04-14 06:00:00 8.6 4 Sudeste 6 Norte 0 -- -- 86
2019-04-14 05:00:00 8.8 4 Noroeste 6 Noroeste 0 -- -- 80
2019-04-14 04:00:00 9 4 Noroeste 6 Este 0 -- -- 80
2019-04-14 03:00:00 11.5 0 Calma 6 Sudoeste 0 -- -- 70
2019-04-14 02:00:00 12.6 3 Sur 12 Sudoeste 0 -- -- 65
2019-04-14 01:00:00 14 8 Sudoeste 22 Noroeste 0 -- -- 56
2019-04-14 00:00:00 14.7 14 Oeste 21 Oeste 0 -- -- 55
2019-04-13 23:00:00 14.7 5 Oeste 11 Oeste 0 -- -- 52
2019-04-13 22:00:00 15.8 4 Noroeste 9 Noroeste 0 -- -- 49
2019-04-13 21:00:00 18.3 7 Noroeste 17 Noroeste 0 -- -- 39
2019-04-13 20:00:00 20.4 14 Noroeste 23 Noroeste 0 -- -- 31
2019-04-13 19:00:00 21.7 11 Noroeste 24 Noroeste 0 -- -- 30
2019-04-13 18:00:00 21.9 13 Noroeste 23 Noroeste 0 -- -- 32
2019-04-13 17:00:00 22.5 7 Oeste 26 Noroeste 0 -- -- 30
2019-04-13 16:00:00 22.1 6 Sur 18 Noroeste 0 -- -- 32
2019-04-13 15:00:00 21.6 6 Sur 20 Norte 0 -- -- 30
2019-04-13 14:00:00 20.5 10 Noroeste 21 Norte 0 -- -- 32
2019-04-13 13:00:00 19.3 5 Oeste 12 Sur 0 -- -- 39
2019-04-13 12:00:00 17.1 6 Sudoeste 9 Sudoeste 0 -- -- 50
2019-04-13 11:00:00 14.2 3 Oeste 6 Oeste 0 -- -- 65
2019-04-13 10:00:00 11.2 4 Oeste 6 Oeste 0 -- -- 78
2019-04-13 09:00:00 8.6 0 Calma 3 Sudeste 0 -- -- 85
2019-04-13 08:00:00 6.5 0 Calma 4 Oeste 0 -- -- 85
2019-04-13 07:00:00 6.6 0 Calma 4 Oeste 0 -- -- 84
2019-04-13 06:00:00 6.8 0 Calma 4 Este 0 -- -- 83
2019-04-13 05:00:00 7.5 0 Calma 4 Sudoeste 0 -- -- 80
2019-04-13 04:00:00 8.1 0 Calma 7 Este 0 -- -- 78
2019-04-13 03:00:00 10.4 7 Sudeste 10 Sudeste 0 -- -- 69
2019-04-13 02:00:00 11.6 3 Sur 17 Oeste 0 -- -- 61
2019-04-13 01:00:00 11.8 6 Noroeste 15 Oeste 0 -- -- 62
2019-04-13 00:00:00 11.3 3 Noroeste 9 Oeste 0 -- -- 63
2019-04-12 23:00:00 13 2 Nordeste 6 Norte 0 -- -- 53
2019-04-12 22:00:00 14.4 4 Norte 8 Oeste 0 -- -- 48
2019-04-12 21:00:00 16.7 4 Noroeste 17 Noroeste 0 -- -- 44
2019-04-12 20:00:00 18.6 12 Noroeste 24 Noroeste 0 -- -- 34
2019-04-12 19:00:00 19.8 8 Noroeste 23 Norte 0 -- -- 34
2019-04-12 18:00:00 19.9 14 Noroeste 22 Noroeste 0 -- -- 33
2019-04-12 17:00:00 19.9 13 Noroeste 22 Noroeste 0 -- -- 32
2019-04-12 16:00:00 20 13 Norte 26 Norte 0 -- -- 33
2019-04-12 15:00:00 19.6 11 Nordeste 19 Nordeste 0 -- -- 31
2019-04-12 14:00:00 18.7 8 Norte 23 Norte 0 -- -- 34
2019-04-12 13:00:00 18 7 Este 14 Sudeste 0 -- -- 40
2019-04-12 12:00:00 15 5 Oeste 8 Oeste 0 -- -- 59
2019-04-12 11:00:00 12.7 4 Sudoeste 8 Sudoeste 0 -- -- 74
2019-04-12 10:00:00 9.9 4 Sudoeste 6 Sur 0 -- -- 89
2019-04-12 09:00:00 6.5 2 Sudoeste 3 Sudoeste 0 -- -- 93
2019-04-12 08:00:00 5.2 0 Calma 4 Noroeste 0 -- -- 93
2019-04-12 07:00:00 5.4 0 Calma 2 Sudoeste 0 -- -- 91
2019-04-12 06:00:00 6.1 0 Calma 3 Oeste 0 -- -- 91
2019-04-12 05:00:00 6.2 0 Calma 4 Sudoeste 0 -- -- 89
2019-04-12 04:00:00 7.5 0 Calma 9 Sudeste 0 -- -- 86
2019-04-12 03:00:00 9.5 8 Sudeste 10 Sudeste 0 -- -- 81
2019-04-12 02:00:00 11.3 0 Calma 12 Noroeste 0 -- -- 72
2019-04-12 01:00:00 11.1 3 Oeste 11 Norte 0 -- -- 74
2019-04-12 00:00:00 11.9 5 Norte 13 Norte 0 -- -- 65
2019-04-11 23:00:00 11.8 6 Norte 10 Noroeste 0 -- -- 63
2019-04-11 22:00:00 12.4 10 Noroeste 13 Noroeste 0 -- -- 62
2019-04-11 21:00:00 14.4 10 Noroeste 19 Noroeste 0 -- -- 53
2019-04-11 20:00:00 16.7 15 Noroeste 25 Noroeste 0 -- -- 44
2019-04-11 19:00:00 17.9 13 Norte 29 Noroeste 0 -- -- 39
2019-04-11 18:00:00 18 17 Noroeste 33 Norte 0 -- -- 38
2019-04-11 17:00:00 18.1 14 Norte 31 Noroeste 0 -- -- 38
2019-04-11 16:00:00 17.5 16 Noroeste 29 Norte 0 -- -- 41
2019-04-11 15:00:00 17.1 16 Norte 28 Norte 0 -- -- 46
2019-04-11 14:00:00 17.1 14 Norte 26 Norte 0 -- -- 47
2019-04-11 13:00:00 16.1 11 Norte 22 Oeste 0 -- -- 50
2019-04-11 12:00:00 14.2 7 Noroeste 14 Noroeste 0 -- -- 60
2019-04-11 11:00:00 12.9 5 Nordeste 12 Nordeste 0 -- -- 67
2019-04-11 10:00:00 11.4 6 Nordeste 10 Nordeste 0 -- -- 72
2019-04-11 09:00:00 8.9 3 Nordeste 6 Norte 0 -- -- 83
2019-04-11 08:00:00 6.7 5 Este 8 Este 0 -- -- 86
2019-04-11 07:00:00 7.5 3 Este 5 Norte 0 -- -- 84
2019-04-11 06:00:00 8 4 Noroeste 12 Oeste 0 -- -- 82
2019-04-11 05:00:00 8.2 4 Noroeste 12 Noroeste 0 -- -- 79
2019-04-11 04:00:00 8.7 8 Noroeste 15 Oeste 0 -- -- 77
2019-04-11 03:00:00 9.8 4 Noroeste 17 Noroeste 0 -- -- 71
2019-04-11 02:00:00 10.2 13 Noroeste 20 Noroeste 0 -- -- 68
2019-04-11 01:00:00 11.4 15 Noroeste 23 Noroeste 0 -- -- 61
2019-04-11 00:00:00 11.3 11 Noroeste 20 Noroeste 0 -- -- 61
2019-04-10 23:00:00 12.9 13 Noroeste 28 Noroeste 0 -- -- 55
2019-04-10 22:00:00 13.6 18 Noroeste 27 Noroeste 0 -- -- 52
2019-04-10 21:00:00 14.5 12 Noroeste 32 Noroeste 0 -- -- 50
2019-04-10 20:00:00 15.7 18 Noroeste 34 Oeste 0 -- -- 47
2019-04-10 19:00:00 15.9 20 Noroeste 35 Oeste 0 -- -- 53
2019-04-10 18:00:00 16 20 Noroeste 32 Noroeste 0 -- -- 53
2019-04-10 17:00:00 15.2 22 Noroeste 35 Oeste 0 -- -- 55
2019-04-10 16:00:00 14.2 18 Noroeste 32 Oeste 0 -- -- 55
2019-04-10 15:00:00 13.1 20 Noroeste 31 Oeste 0 -- -- 62
2019-04-10 14:00:00 12.9 18 Noroeste 26 Noroeste 0 -- -- 63
2019-04-10 13:00:00 12.4 13 Noroeste 27 Noroeste 0 -- -- 64
2019-04-10 12:00:00 11.3 17 Noroeste 27 Noroeste 0 -- -- 67
2019-04-10 11:00:00 9.8 14 Noroeste 25 Noroeste 0 -- -- 78
2019-04-10 10:00:00 8.9 11 Noroeste 18 Oeste 0 -- -- 85
2019-04-10 09:00:00 7.5 3 Noroeste 6 Norte 0 -- -- 91
2019-04-10 08:00:00 6.5 3 Norte 13 Oeste 0 -- -- 91
2019-04-10 07:00:00 7.1 8 Noroeste 11 Noroeste 0 -- -- 92
2019-04-10 06:00:00 7.7 7 Noroeste 19 Noroeste 0 -- -- 90
2019-04-10 05:00:00 9 12 Noroeste 25 Noroeste 0 -- -- 88
2019-04-10 04:00:00 9.8 16 Noroeste 25 Noroeste 0 -- -- 85
2019-04-10 03:00:00 10.6 17 Noroeste 27 Noroeste 0 -- -- 82
2019-04-10 02:00:00 10.8 17 Noroeste 24 Oeste 0 -- -- 84
2019-04-10 01:00:00 10.5 13 Oeste 26 Oeste 0 -- -- 88
2019-04-10 00:00:00 10.6 11 Oeste 28 Oeste 0 -- -- 85
2019-04-09 23:00:00 11.6 18 Oeste 41 Oeste 0 -- -- 79
2019-04-09 22:00:00 12.4 24 Oeste 41 Oeste 0 -- -- 72
2019-04-09 21:00:00 13.5 21 Oeste 38 Oeste 0 -- -- 67
2019-04-09 20:00:00 14.2 25 Oeste 38 Oeste 0 -- -- 65
2019-04-09 19:00:00 14.5 21 Noroeste 37 Oeste 0 -- -- 61
2019-04-09 18:00:00 15.1 26 Oeste 40 Oeste 0 -- -- 58
2019-04-09 17:00:00 14.5 15 Noroeste 37 Oeste 0 -- -- 62
2019-04-09 16:00:00 15.1 19 Oeste 46 Oeste 0 -- -- 55
2019-04-09 15:00:00 15 19 Oeste 41 Oeste 0 -- -- 59
2019-04-09 14:00:00 13.9 19 Oeste 40 Oeste 0.2 -- -- 61
2019-04-09 13:00:00 12.8 21 Oeste 40 Oeste 0 -- -- 68
2019-04-09 12:00:00 12.8 16 Oeste 28 Oeste 0 -- -- 73
2019-04-09 11:00:00 11.3 8 Oeste 15 Oeste 0 -- -- 83
2019-04-09 10:00:00 9.7 4 Oeste 10 Sudoeste 0 -- -- 88
2019-04-09 09:00:00 8.6 3 Oeste 7 Noroeste 0 -- -- 92
2019-04-09 08:00:00 7.6 6 Noroeste 15 Oeste 0 -- -- 89
2019-04-09 07:00:00 8.1 10 Noroeste 15 Oeste 0 -- -- 88
2019-04-09 06:00:00 7.4 9 Noroeste 12 Noroeste 0 -- -- 87
2019-04-09 05:00:00 8.3 8 Noroeste 20 Oeste 0 -- -- 84
2019-04-09 04:00:00 10 9 Oeste 20 Oeste 0 -- -- 84
2019-04-09 03:00:00 10.9 13 Oeste 21 Oeste 0 -- -- 85
2019-04-09 02:00:00 11.3 8 Oeste 26 Oeste 0 -- -- 84
2019-04-09 01:00:00 11.6 12 Oeste 21 Oeste 0 -- -- 81
2019-04-09 00:00:00 11.9 13 Oeste 23 Oeste 0 -- -- 76
2019-04-08 23:00:00 12.5 12 Oeste 23 Oeste 0 -- -- 74
2019-04-08 22:00:00 12.3 2 Nordeste 19 Oeste 0 -- -- 81
2019-04-08 21:00:00 13.3 12 Oeste 29 Oeste 0 -- -- 79
2019-04-08 20:00:00 14.3 13 Sudoeste 36 Sudoeste 0 -- -- 77
2019-04-08 19:00:00 14.2 25 Sudoeste 36 Sudoeste 0 -- -- 80
2019-04-08 18:00:00 13.4 17 Sudoeste 34 Sudoeste 0.2 -- -- 88
2019-04-08 17:00:00 14.9 18 Oeste 36 Sudoeste 0.2 -- -- 79
2019-04-08 16:00:00 14.6 23 Oeste 44 Sudoeste 0 -- -- 78
2019-04-08 15:00:00 15.3 10 Oeste 35 Oeste 0.2 -- -- 79
2019-04-08 14:00:00 15.7 17 Oeste 32 Oeste 0 -- -- 70
2019-04-08 13:00:00 15.4 20 Oeste 31 Sudoeste 0 -- -- 69
2019-04-08 12:00:00 13.6 15 Sudoeste 40 Oeste 0 -- -- 83
2019-04-08 11:00:00 14.4 10 Sudoeste 16 Sudoeste 0 -- -- 80
2019-04-08 10:00:00 12.5 0 Calma 7 Sur 0 -- -- 93
2019-04-08 09:00:00 11.3 8 Sudoeste 15 Sudoeste 0 -- -- 94
2019-04-08 08:00:00 10.2 6 Sur 7 Sur 0 -- -- 94
2019-04-08 07:00:00 10.9 5 Sur 13 Sudoeste 0 -- -- 93
2019-04-08 06:00:00 11.2 5 Sudoeste 9 Sudoeste 0 -- -- 95
2019-04-08 05:00:00 11.1 6 Sudoeste 10 Sudoeste 0 -- -- 94
2019-04-08 04:00:00 11 3 Sur 11 Sudoeste 0.2 -- -- 93
2019-04-08 03:00:00 11.4 6 Sudoeste 15 Sudoeste 0.2 -- -- 93
2019-04-08 02:00:00 11.6 4 Sur 15 Sudoeste 0 -- -- 91
2019-04-08 01:00:00 12.2 8 Oeste 20 Oeste 0 -- -- 92
2019-04-08 00:00:00 12.5 8 Oeste 35 Oeste 1.4 -- -- 93
2019-04-07 23:00:00 12.9 21 Oeste 32 Oeste 0.2 -- -- 92
2019-04-07 22:00:00 12.8 21 Oeste 33 Oeste 2.6 -- -- 94
2019-04-07 21:00:00 12.3 12 Sudoeste 20 Sur 1.2 -- -- 93
2019-04-07 20:00:00 12.6 12 Sur 24 Sudoeste 0.2 -- -- 88
2019-04-07 19:00:00 12.8 9 Oeste 22 Oeste 0 -- -- 84
2019-04-07 18:00:00 12.7 16 Oeste 29 Oeste 0 -- -- 82
2019-04-07 17:00:00 12.1 18 Oeste 29 Oeste 0.2 -- -- 87
2019-04-07 16:00:00 12.6 18 Oeste 33 Oeste 0 -- -- 80
2019-04-07 15:00:00 13.5 13 Oeste 30 Oeste 0 -- -- 70
2019-04-07 14:00:00 13 18 Oeste 34 Noroeste 0 -- -- 67
2019-04-07 13:00:00 12.4 18 Noroeste 31 Oeste 0 -- -- 68
2019-04-07 12:00:00 11.5 14 Oeste 28 Noroeste 0 -- -- 75
2019-04-07 11:00:00 9.9 5 Noroeste 13 Oeste 0 -- -- 86
2019-04-07 10:00:00 9.5 6 Noroeste 18 Noroeste 0 -- -- 85
2019-04-07 09:00:00 8.8 10 Oeste 22 Oeste 0.2 -- -- 87
2019-04-07 08:00:00 9 8 Oeste 21 Oeste 0 -- -- 84
2019-04-07 07:00:00 9.1 7 Oeste 19 Oeste 0 -- -- 80
2019-04-07 06:00:00 9 10 Sudoeste 22 Oeste 0 -- -- 80
2019-04-07 05:00:00 9.1 10 Oeste 22 Oeste 0 -- -- 80
2019-04-07 04:00:00 9.1 9 Oeste 20 Oeste 0.2 -- -- 82
2019-04-07 03:00:00 9.1 9 Sudoeste 20 Sudoeste 0 -- -- 81
2019-04-07 02:00:00 9.2 9 Oeste 20 Oeste 0 -- -- 82
2019-04-07 01:00:00 9.5 13 Sudoeste 33 Oeste 0 -- -- 82
2019-04-07 00:00:00 9.6 22 Oeste 41 Oeste 0 -- -- 85
2019-04-06 23:00:00 9.6 23 Oeste 45 Sudoeste 0 -- -- 87
2019-04-06 22:00:00 9 12 Oeste 27 Oeste 0.4 -- -- 91
2019-04-06 21:00:00 8.3 10 Sudoeste 37 Oeste 1.4 -- -- 88
2019-04-06 20:00:00 9.2 14 Oeste 28 Noroeste 0.4 -- -- 88
2019-04-06 19:00:00 8.6 24 Noroeste 51 Oeste 1 -- -- 82
2019-04-06 18:00:00 10.4 19 Oeste 41 Oeste 0.4 -- -- 80
2019-04-06 17:00:00 7.9 26 Noroeste 73 Noroeste 0.2 -- -- 85
2019-04-06 16:00:00 12.8 23 Sudoeste 47 Oeste 0 -- -- 69
2019-04-06 15:00:00 11.2 22 Oeste 40 Oeste 0.4 -- -- 68
2019-04-06 14:00:00 11.2 18 Oeste 40 Oeste 0 -- -- 66
2019-04-06 13:00:00 10.9 16 Oeste 35 Oeste 0.8 -- -- 71
2019-04-06 12:00:00 9.9 20 Oeste 32 Sudoeste 0 -- -- 75
2019-04-06 11:00:00 9.3 15 Sudoeste 26 Oeste 0 -- -- 79
2019-04-06 10:00:00 8.2 12 Sudoeste 20 Sudoeste 0.2 -- -- 86
2019-04-06 09:00:00 7.9 7 Sudoeste 17 Sudoeste 0 -- -- 85
2019-04-06 08:00:00 7.5 8 Oeste 18 Oeste 0 -- -- 85
2019-04-06 07:00:00 7.8 11 Oeste 35 Oeste 0 -- -- 83
2019-04-06 06:00:00 8.1 14 Oeste 34 Oeste 0 -- -- 81
2019-04-06 05:00:00 7.8 13 Oeste 24 Sudoeste 0 -- -- 82
2019-04-06 04:00:00 7 3 Sur 15 Oeste 0 -- -- 84
2019-04-06 03:00:00 7 9 Oeste 27 Oeste 0 -- -- 81
2019-04-06 02:00:00 7.2 10 Oeste 30 Oeste 0 -- -- 81
2019-04-06 01:00:00 7.7 14 Oeste 33 Oeste 0 -- -- 78
2019-04-06 00:00:00 8.1 9 Oeste 30 Oeste 0 -- -- 78
2019-04-05 23:00:00 8.2 13 Oeste 41 Oeste 0 -- -- 81
2019-04-05 22:00:00 8.7 11 Oeste 28 Sudoeste 0 -- -- 77
2019-04-05 21:00:00 8.8 12 Sudoeste 41 Oeste 0.2 -- -- 77
2019-04-05 20:00:00 10.1 26 Oeste 46 Oeste 0 -- -- 66
2019-04-05 19:00:00 11.4 27 Oeste 49 Oeste 0 -- -- 61
2019-04-05 18:00:00 11.3 24 Oeste 51 Oeste 0 -- -- 55
2019-04-05 17:00:00 8.7 23 Oeste 65 Noroeste 2 -- -- 84
2019-04-05 16:00:00 12.1 23 Oeste 42 Oeste 0 -- -- 58
2019-04-05 15:00:00 11.6 29 Oeste 44 Oeste 0 -- -- 60
2019-04-05 14:00:00 10.1 19 Oeste 32 Oeste 0 -- -- 85
2019-04-05 13:00:00 8.7 14 Sudoeste 56 Oeste 3 -- -- 88
2019-04-05 12:00:00 9.5 6 Sur 22 Sudoeste 0 -- -- 87
2019-04-05 11:00:00 9.1 13 Sur 22 Sur 0.2 -- -- 90
2019-04-05 10:00:00 8.4 22 Sur 29 Sur 2.6 -- -- 90
2019-04-05 09:00:00 8.7 13 Sur 22 Sur 0.4 -- -- 86
2019-04-05 08:00:00 9.7 12 Sur 22 Sudoeste 0 -- -- 75
2019-04-05 07:00:00 9.9 12 Sur 28 Sudoeste 0 -- -- 72
2019-04-05 06:00:00 10.1 15 Sudoeste 35 Sudoeste 0 -- -- 72
2019-04-05 05:00:00 10.2 17 Sudoeste 25 Sudoeste 0 -- -- 72
2019-04-05 04:00:00 10 12 Oeste 36 Oeste 0 -- -- 68
2019-04-05 03:00:00 10.1 22 Oeste 39 Oeste 0 -- -- 69
2019-04-05 02:00:00 10 25 Sudoeste 39 Sudoeste 0 -- -- 68
2019-04-05 01:00:00 9.8 21 Sudoeste 31 Sudoeste 0 -- -- 63
2019-04-05 00:00:00 10.1 16 Sudoeste 24 Oeste 0 -- -- 56
2019-04-04 23:00:00 11.1 16 Sudoeste 30 Oeste 0 -- -- 50
2019-04-04 22:00:00 11.9 17 Oeste 41 Oeste 0 -- -- 48
2019-04-04 21:00:00 13.1 26 Oeste 42 Oeste 0 -- -- 47
2019-04-04 20:00:00 14.9 19 Oeste 33 Oeste 0 -- -- 44
2019-04-04 19:00:00 17.1 17 Oeste 32 Oeste 0 -- -- 38
2019-04-04 18:00:00 17.3 14 Oeste 32 Oeste 0 -- -- 35
2019-04-04 17:00:00 17.4 15 Oeste 33 Oeste 0 -- -- 35
2019-04-04 16:00:00 17.2 13 Oeste 30 Oeste 0 -- -- 35
2019-04-04 15:00:00 16.7 14 Oeste 29 Oeste 0 -- -- 38
2019-04-04 14:00:00 16 11 Oeste 23 Oeste 0 -- -- 37
2019-04-04 13:00:00 14.4 4 Sudoeste 11 Sur 0 -- -- 36
2019-04-04 12:00:00 13.2 7 Sur 13 Sur 0 -- -- 44
2019-04-04 11:00:00 11.7 6 Sudoeste 18 Norte 0 -- -- 51
2019-04-04 10:00:00 9.8 8 Noroeste 14 Norte 0 -- -- 53
2019-04-04 09:00:00 7.7 0 Calma 4 Norte 0 -- -- 69
2019-04-04 08:00:00 6 2 Norte 8 Noroeste 0 -- -- 70
2019-04-04 07:00:00 6.3 0 Calma 4 Noroeste 0 -- -- 73
2019-04-04 06:00:00 6.7 0 Calma 6 Norte 0 -- -- 79
2019-04-04 05:00:00 7.5 6 Nordeste 10 Norte 0 -- -- 75
2019-04-04 04:00:00 8.1 5 Norte 21 Noroeste 0 -- -- 75
2019-04-04 03:00:00 10 16 Noroeste 22 Noroeste 0 -- -- 70
2019-04-04 02:00:00 9.1 3 Noroeste 10 Oeste 0 -- -- 74
2019-04-04 01:00:00 10.2 5 Noroeste 20 Noroeste 0 -- -- 70
2019-04-04 00:00:00 11.4 11 Noroeste 23 Oeste 0 -- -- 66
2019-04-03 23:00:00 14.3 13 Oeste 23 Sudoeste 0 -- -- 57
2019-04-03 22:00:00 15.2 10 Oeste 16 Oeste 0 -- -- 55
2019-04-03 21:00:00 16.1 10 Oeste 30 Oeste 0 -- -- 53
2019-04-03 20:00:00 17.9 15 Oeste 35 Oeste 0 -- -- 45
2019-04-03 19:00:00 19.1 24 Noroeste 39 Oeste 0 -- -- 42
2019-04-03 18:00:00 19.7 23 Oeste 39 Oeste 0 -- -- 39
2019-04-03 17:00:00 20 22 Oeste 38 Oeste 0 -- -- 43
2019-04-03 16:00:00 20.1 18 Oeste 31 Oeste 0 -- -- 45
2019-04-03 15:00:00 19.6 14 Oeste 26 Oeste 0 -- -- 47
2019-04-03 14:00:00 19.3 6 Sudoeste 11 Sudoeste 0 -- -- 57
2019-04-03 13:00:00 18.1 7 Sur 9 Sudoeste 0 -- -- 61
2019-04-03 12:00:00 15.6 5 Sudoeste 8 Sudoeste 0 -- -- 69
2019-04-03 11:00:00 13.2 5 Sudoeste 8 Sudoeste 0 -- -- 84
2019-04-03 10:00:00 11.1 3 Sudoeste 4 Sur 0 -- -- 94
2019-04-03 09:00:00 8.7 0 Calma 4 Noroeste 0 -- -- 95
2019-04-03 08:00:00 7.5 0 Calma 4 Noroeste 0 -- -- 93
2019-04-03 07:00:00 8.1 3 Sudeste 4 Sudeste 0 -- -- 93
2019-04-03 06:00:00 8.5 2 Nordeste 5 Norte 0 -- -- 93
2019-04-03 05:00:00 8.4 2 Oeste 5 Sudeste 0 -- -- 91
2019-04-03 04:00:00 9.6 0 Calma 6 Nordeste 0 -- -- 90
2019-04-03 03:00:00 10.2 0 Calma 5 Sur 0 -- -- 89
2019-04-03 02:00:00 11 4 Sur 6 Sur 0 -- -- 87
2019-04-03 01:00:00 11.6 4 Norte 6 Norte 0 -- -- 85
2019-04-03 00:00:00 12.8 0 Calma 4 Norte 0 -- -- 78
2019-04-02 23:00:00 13.6 0 Calma 8 Nordeste 0 -- -- 74
2019-04-02 22:00:00 14 8 Noroeste 11 Noroeste 0 -- -- 75
2019-04-02 21:00:00 16 5 Noroeste 8 Norte 0 -- -- 67
2019-04-02 20:00:00 17.6 5 Noroeste 12 Oeste 0 -- -- 54
2019-04-02 19:00:00 18.1 8 Noroeste 15 Noroeste 0 -- -- 59
2019-04-02 18:00:00 18.8 9 Norte 16 Noroeste 0 -- -- 54
2019-04-02 17:00:00 19 5 Oeste 13 Sudoeste 0 -- -- 53
2019-04-02 16:00:00 18.7 7 Sudoeste 10 Sudoeste 0 -- -- 53
2019-04-02 15:00:00 18.5 6 Sudoeste 12 Sur 0 -- -- 53
2019-04-02 14:00:00 17.6 6 Sur 9 Sur 0 -- -- 53
2019-04-02 13:00:00 15.6 2 Sudeste 10 Norte 0 -- -- 73
2019-04-02 12:00:00 12.5 3 Sur 7 Sudoeste 0 -- -- 97
2019-04-02 11:00:00 9.3 3 Oeste 5 Sudoeste 0 -- -- 97
2019-04-02 10:00:00 7.6 2 Sudoeste 6 Sur 0 -- -- 97
2019-04-02 09:00:00 6.8 4 Sur 6 Sur 0 -- -- 96
2019-04-02 08:00:00 6.4 2 Sudeste 5 Sudeste 0.2 -- -- 96
2019-04-02 07:00:00 7.1 0 Calma 6 Sur 0 -- -- 95
2019-04-02 06:00:00 7.9 4 Sur 9 Sudoeste 0 -- -- 95
2019-04-02 05:00:00 8.1 3 Sudoeste 5 Sudoeste 0 -- -- 95
2019-04-02 04:00:00 8.7 0 Calma 9 Sudeste 0 -- -- 94
2019-04-02 03:00:00 9.1 0 Calma 6 Este 0 -- -- 93
2019-04-02 02:00:00 10 3 Noroeste 6 Este 0 -- -- 93
2019-04-02 01:00:00 10.3 3 Sudeste 7 Nordeste 0 -- -- 93
2019-04-02 00:00:00 10.9 3 Este 8 Este 0 -- -- 93
2019-04-01 23:00:00 11.5 4 Este 11 Este 0 -- -- 93
2019-04-01 22:00:00 12 8 Este 15 Este 1.4 -- -- 92
2019-04-01 21:00:00 12.4 5 Noroeste 10 Noroeste 3 -- -- 89
2019-04-01 20:00:00 13 5 Nordeste 12 Este 0 -- -- 84
2019-04-01 19:00:00 12.7 9 Nordeste 23 Oeste 1.8 -- -- 85
2019-04-01 18:00:00 13.4 19 Sudoeste 30 Sudoeste 2.2 -- -- 80
2019-04-01 17:00:00 15.7 10 Sur 23 Sur 0 -- -- 68
2019-04-01 16:00:00 16.2 9 Sur 22 Sudeste 0 -- -- 67
2019-04-01 15:00:00 15.5 14 Sur 26 Sur 0 -- -- 72
2019-04-01 14:00:00 16.3 12 Sur 18 Sur 0 -- -- 64
2019-04-01 13:00:00 14.6 8 Sudoeste 15 Sur 0 -- -- 72
2019-04-01 12:00:00 13.9 13 Sur 22 Sudoeste 0 -- -- 78
2019-04-01 11:00:00 13.1 12 Sudoeste 16 Sudoeste 0 -- -- 94
2019-04-01 10:00:00 10.9 0 Calma 4 Sudoeste 0 -- -- 95
2019-04-01 09:00:00 9.6 0 Calma 5 Sudoeste 0 -- -- 96
2019-04-01 08:00:00 8.7 3 Norte 5 Oeste 0 -- -- 95
2019-04-01 07:00:00 8.8 6 Oeste 8 Oeste 0 -- -- 94
2019-04-01 06:00:00 9.6 3 Oeste 5 Sudeste 0 -- -- 94
2019-04-01 05:00:00 9.9 5 Sur 7 Sudeste 0 -- -- 94
2019-04-01 04:00:00 10.4 4 Sur 7 Sur 0 -- -- 93
2019-04-01 03:00:00 11.2 0 Calma 9 Sur 0.2 -- -- 94
2019-04-01 02:00:00 11.3 3 Sur 8 Sudeste 0 -- -- 93
2019-04-01 01:00:00 11.6 4 Sudeste 8 Este 0 -- -- 92
2019-04-01 00:00:00 11.9 6 Sur 11 Sur 0 -- -- 92
2019-03-31 23:00:00 12.2 0 Calma 19 Sudoeste 1 -- -- 89
2019-03-31 22:00:00 11.7 8 Oeste 25 Oeste 6 -- -- 89
2019-03-31 21:00:00 12.5 15 Oeste 39 Sudoeste 1 -- -- 86
2019-03-31 20:00:00 16.8 4 Norte 13 Este 0 -- -- 65
2019-03-31 19:00:00 18.2 9 Nordeste 19 Nordeste 0 -- -- 57
2019-03-31 18:00:00 18.5 7 Nordeste 18 Norte 0 -- -- 56
2019-03-31 17:00:00 18.8 7 Nordeste 16 Norte 0 -- -- 57
2019-03-31 16:00:00 18 10 Norte 18 Norte 0 -- -- 56
2019-03-31 15:00:00 17 5 Norte 13 Nordeste 0 -- -- 62
2019-03-31 14:00:00 15.8 4 Oeste 8 Sudoeste 0 -- -- 73
2019-03-31 13:00:00 15.5 5 Sudoeste 8 Sudoeste 0 -- -- 78
2019-03-31 12:00:00 13.5 4 Este 7 Este 0 -- -- 90
2019-03-31 11:00:00 12 4 Este 6 Este 0 -- -- 94
2019-03-31 10:00:00 11.6 0 Calma 4 Este 0.6 -- -- 95
2019-03-31 09:00:00 11.1 2 Sudeste 5 Este 3.4 -- -- 94
2019-03-31 08:00:00 11.1 2 Sur 6 Sur 3.2 -- -- 94
2019-03-31 07:00:00 11.2 4 Sur 10 Sur 2.2 -- -- 93
2019-03-31 06:00:00 11.3 5 Sur 9 Sur 0.8 -- -- 92
2019-03-31 05:00:00 11.5 4 Sur 12 Sur 0.4 -- -- 91
2019-03-31 03:00:00 11.9 10 Sur 26 Sur 0 -- -- 83
2019-03-31 01:00:00 12.1 19 Sur 39 Sur 0 -- -- 82
2019-03-31 00:00:00 12 22 Sur 36 Sur 0 -- -- 82
2019-03-30 23:00:00 12.2 25 Sur 41 Sur 0 -- -- 77
2019-03-30 22:00:00 12 25 Sur 37 Sur 0 -- -- 77
2019-03-30 21:00:00 11.9 27 Sur 42 Sur 0 -- -- 76
2019-03-30 20:00:00 12.1 29 Sur 51 Sur 0 -- -- 74
2019-03-30 19:00:00 12.9 32 Sur 50 Sur 0 -- -- 70
2019-03-30 18:00:00 13.8 30 Sur 51 Sur 0 -- -- 64
2019-03-30 17:00:00 14.7 37 Sur 54 Sur 0 -- -- 61
2019-03-30 16:00:00 16.4 33 Sur 45 Sur 0 -- -- 54
2019-03-30 15:00:00 17.2 32 Sur 46 Sur 0 -- -- 47
2019-03-30 14:00:00 16.9 32 Sur 50 Sur 0 -- -- 51
2019-03-30 13:00:00 16.5 31 Sur 49 Sur 0 -- -- 53
2019-03-30 12:00:00 16.1 28 Sur 43 Sur 0 -- -- 55
2019-03-30 11:00:00 14.5 34 Sur 46 Sur 0 -- -- 60
2019-03-30 10:00:00 13.8 28 Sur 48 Sur 0 -- -- 62
2019-03-30 09:00:00 12.1 29 Sur 48 Sur 0 -- -- 72
2019-03-30 08:00:00 10.8 24 Sur 48 Sur 0 -- -- 76
2019-03-30 07:00:00 10.5 24 Sur 45 Sur 0 -- -- 80
2019-03-30 06:00:00 10.5 26 Sur 41 Sur 0 -- -- 80
2019-03-30 05:00:00 10.5 22 Sur 41 Sur 0 -- -- 79
2019-03-30 04:00:00 11.1 24 Sur 39 Sur 0 -- -- 78
2019-03-30 03:00:00 10.9 30 Sur 44 Sur 0 -- -- 78
2019-03-30 02:00:00 11.2 22 Sur 49 Sur 0 -- -- 76
2019-03-30 01:00:00 11.5 31 Sur 49 Sur 0 -- -- 77
2019-03-30 00:00:00 11.1 22 Sur 41 Sur 0 -- -- 79
2019-03-29 23:00:00 11.1 21 Sur 39 Sur 0 -- -- 78
2019-03-29 22:00:00 11 17 Sur 36 Sudeste 0 -- -- 79
2019-03-29 21:00:00 11.4 21 Sur 38 Sur 0 -- -- 76
2019-03-29 20:00:00 12.1 26 Sur 40 Sur 0 -- -- 71
2019-03-29 19:00:00 13.2 25 Sur 42 Sur 0 -- -- 63
2019-03-29 18:00:00 14.3 28 Sur 48 Sur 0 -- -- 58
2019-03-29 17:00:00 15.8 35 Sur 51 Sur 0 -- -- 52
2019-03-29 16:00:00 16.2 32 Sur 51 Sur 0 -- -- 50
2019-03-29 15:00:00 16.5 36 Sur 54 Sur 0 -- -- 48
2019-03-29 14:00:00 16.1 34 Sur 58 Sudeste 0 -- -- 49
2019-03-29 13:00:00 16.1 36 Sur 51 Sur 0 -- -- 49
2019-03-29 12:00:00 15.8 33 Sur 51 Sudeste 0 -- -- 51
2019-03-29 11:00:00 14.6 37 Sur 53 Sudeste 0 -- -- 52
2019-03-29 10:00:00 12.7 30 Sur 47 Sur 0 -- -- 62
2019-03-29 09:00:00 11.2 28 Sur 45 Sur 0 -- -- 67
2019-03-29 08:00:00 10.6 25 Sur 42 Sur 0 -- -- 65
2019-03-29 07:00:00 9.8 26 Sur 39 Sur 0 -- -- 66
2019-03-29 06:00:00 9.4 20 Sur 40 Sudeste 0 -- -- 66
2019-03-29 05:00:00 9.7 24 Sur 42 Sudeste 0 -- -- 63
2019-03-29 04:00:00 9.5 23 Sudeste 35 Sudeste 0 -- -- 68
2019-03-29 03:00:00 9.1 17 Sudeste 32 Sur 0 -- -- 76
2019-03-29 02:00:00 9.3 22 Sur 31 Sur 0 -- -- 81
2019-03-29 01:00:00 9.6 12 Sudeste 30 Sudeste 0 -- -- 77
2019-03-29 00:00:00 9.9 17 Sur 39 Sudeste 0 -- -- 77
2019-03-28 23:00:00 10.2 18 Sudeste 39 Sudeste 0 -- -- 73
2019-03-28 22:00:00 10.4 31 Sur 46 Sur 0 -- -- 70
2019-03-28 21:00:00 10.9 21 Sur 34 Sur 0 -- -- 64
2019-03-28 20:00:00 11.5 24 Sur 44 Sur 0 -- -- 58
2019-03-28 19:00:00 13 28 Sur 53 Sur 0 -- -- 48
2019-03-28 18:00:00 14.8 37 Sur 53 Sur 0 -- -- 38
2019-03-28 17:00:00 16.9 32 Sur 51 Sur 0 -- -- 30
2019-03-28 16:00:00 17.8 28 Sur 50 Sur 0 -- -- 31
2019-03-28 15:00:00 18.6 26 Sudeste 49 Sudeste 0 -- -- 23
2019-03-28 14:00:00 18.1 31 Sudeste 48 Sudeste 0 -- -- 17
2019-03-28 13:00:00 17.7 27 Sudeste 51 Sudeste 0 -- -- 25
2019-03-28 12:00:00 16.5 30 Sur 50 Sudeste 0 -- -- 37
2019-03-28 11:00:00 15.3 24 Sur 42 Sur 0 -- -- 43
2019-03-28 10:00:00 13.3 30 Sur 44 Sur 0 -- -- 50
2019-03-28 09:00:00 11.9 13 Sudeste 19 Sudeste 0 -- -- 54
2019-03-28 08:00:00 9.6 12 Sudeste 27 Sudeste 0 -- -- 68
2019-03-28 07:00:00 7.5 10 Sudeste 17 Sudeste 0 -- -- 79
2019-03-28 06:00:00 9.1 12 Sudeste 28 Sudeste 0 -- -- 70
2019-03-28 05:00:00 9.4 20 Sudeste 31 Sudeste 0 -- -- 71
2019-03-28 04:00:00 9.3 21 Sur 32 Sudeste 0 -- -- 73
2019-03-28 03:00:00 9.9 15 Sur 32 Sudeste 0 -- -- 78
2019-03-28 02:00:00 10.6 18 Sudeste 36 Sudeste 0 -- -- 74
2019-03-28 01:00:00 10.5 20 Sur 35 Sur 0 -- -- 78
2019-03-28 00:00:00 10.7 23 Sur 38 Sur 0 -- -- 77
2019-03-27 23:00:00 10.9 27 Sur 40 Sudeste 0 -- -- 74
2019-03-27 22:00:00 10.9 23 Sur 42 Sur 0 -- -- 75
2019-03-27 21:00:00 11 22 Sur 39 Sur 0 -- -- 70
2019-03-27 20:00:00 11.6 22 Sur 38 Sur 0 -- -- 67
2019-03-27 19:00:00 13 28 Sur 48 Sur 0 -- -- 59
2019-03-27 18:00:00 15 28 Sur 44 Sur 0 -- -- 48
2019-03-27 17:00:00 16.2 29 Sur 41 Sur 0 -- -- 42
2019-03-27 16:00:00 17.5 25 Sur 39 Sur 0 -- -- 38
2019-03-27 15:00:00 17.9 23 Sur 37 Sur 0 -- -- 36
2019-03-27 14:00:00 17.9 12 Sudoeste 23 Sudoeste 0 -- -- 34
2019-03-27 13:00:00 17.3 9 Sudoeste 18 Sur 0 -- -- 38
2019-03-27 12:00:00 16.1 6 Sudoeste 19 Sur 0 -- -- 41
2019-03-27 11:00:00 15 4 Sudoeste 15 Sudeste 0 -- -- 47
2019-03-27 10:00:00 14.3 8 Sudeste 20 Sur 0 -- -- 51
2019-03-27 09:00:00 12.5 10 Sudeste 17 Sur 0 -- -- 58
2019-03-27 08:00:00 9.2 12 Sur 24 Sudeste 0 -- -- 68
2019-03-27 07:00:00 8.4 13 Sudeste 18 Sudeste 0 -- -- 68
2019-03-27 06:00:00 9.3 12 Sudeste 33 Sur 0 -- -- 67
2019-03-27 05:00:00 9.7 20 Sur 40 Sur 0 -- -- 74
2019-03-27 04:00:00 10.2 25 Sur 41 Sudeste 0 -- -- 74
2019-03-27 03:00:00 10.9 28 Sur 41 Sur 0 -- -- 71
2019-03-27 02:00:00 11.6 21 Sur 39 Sur 0 -- -- 75
2019-03-27 01:00:00 11.6 25 Sur 39 Sur 0 -- -- 70
2019-03-27 00:00:00 12.1 26 Sur 43 Sur 0 -- -- 76